sensor_id;sensor_type;location;lat;lon;timestamp;pressure;altitude;pressure_sealevel;temperature;humidity
77793;BME280;66983;51.438;5.438;2023-04-25T00:01:13;101029.13;;;7.24;78.29
77793;BME280;66983;51.438;5.438;2023-04-25T00:03:39;101030.00;;;7.25;77.88
77793;BME280;66983;51.438;5.438;2023-04-25T00:06:06;101037.97;;;7.25;77.43
77793;BME280;66983;51.438;5.438;2023-04-25T00:08:32;101030.00;;;7.25;78.35
77793;BME280;66983;51.438;5.438;2023-04-25T00:10:58;101045.00;;;7.26;78.17
77793;BME280;66983;51.438;5.438;2023-04-25T00:13:23;101045.81;;;7.28;78.05
77793;BME280;66983;51.438;5.438;2023-04-25T00:15:51;101037.94;;;7.26;77.95
77793;BME280;66983;51.438;5.438;2023-04-25T00:18:19;101040.59;;;7.26;77.74
77793;BME280;66983;51.438;5.438;2023-04-25T00:20:45;101055.63;;;7.26;78.26
77793;BME280;66983;51.438;5.438;2023-04-25T00:23:16;101042.34;;;7.26;78.21
77793;BME280;66983;51.438;5.438;2023-04-25T00:25:49;101043.28;;;7.25;78.10
77793;BME280;66983;51.438;5.438;2023-04-25T00:28:15;101038.94;;;7.21;78.16
77793;BME280;66983;51.438;5.438;2023-04-25T00:30:42;101036.38;;;7.16;77.92
77793;BME280;66983;51.438;5.438;2023-04-25T00:33:09;101046.91;;;7.19;78.21
77793;BME280;66983;51.438;5.438;2023-04-25T00:35:36;101056.66;;;7.19;78.08
77793;BME280;66983;51.438;5.438;2023-04-25T00:38:02;101040.75;;;7.19;78.61
77793;BME280;66983;51.438;5.438;2023-04-25T00:40:28;101042.56;;;7.17;78.23
77793;BME280;66983;51.438;5.438;2023-04-25T00:42:53;101041.66;;;7.18;78.17
77793;BME280;66983;51.438;5.438;2023-04-25T00:45:20;101040.81;;;7.15;78.05
77793;BME280;66983;51.438;5.438;2023-04-25T00:47:46;101032.00;;;7.13;78.29
77793;BME280;66983;51.438;5.438;2023-04-25T00:50:13;101040.00;;;7.12;78.26
77793;BME280;66983;51.438;5.438;2023-04-25T00:52:43;101036.47;;;7.11;78.51
77793;BME280;66983;51.438;5.438;2023-04-25T00:55:10;101033.81;;;7.11;78.62
77793;BME280;66983;51.438;5.438;2023-04-25T00:57:36;101039.19;;;7.08;78.42
77793;BME280;66983;51.438;5.438;2023-04-25T01:00:04;101048.09;;;7.04;78.76
77793;BME280;66983;51.438;5.438;2023-04-25T01:02:35;101047.34;;;6.99;79.15
77793;BME280;66983;51.438;5.438;2023-04-25T01:05:02;101050.00;;;6.99;79.02
77793;BME280;66983;51.438;5.438;2023-04-25T01:07:27;101044.69;;;6.99;79.01
77793;BME280;66983;51.438;5.438;2023-04-25T01:09:53;101046.44;;;7.00;78.74
77793;BME280;66983;51.438;5.438;2023-04-25T01:12:19;101041.97;;;7.02;79.13
77793;BME280;66983;51.438;5.438;2023-04-25T01:14:45;101044.66;;;7.01;79.04
77793;BME280;66983;51.438;5.438;2023-04-25T01:17:12;101042.06;;;6.99;78.92
77793;BME280;66983;51.438;5.438;2023-04-25T01:19:38;101041.25;;;6.96;79.25
77793;BME280;66983;51.438;5.438;2023-04-25T01:22:04;101043.81;;;6.99;78.15
77793;BME280;66983;51.438;5.438;2023-04-25T01:24:32;101041.28;;;6.94;78.76
77793;BME280;66983;51.438;5.438;2023-04-25T01:26:59;101048.34;;;6.94;78.24
77793;BME280;66983;51.438;5.438;2023-04-25T01:29:26;101043.06;;;6.92;78.59
77793;BME280;66983;51.438;5.438;2023-04-25T01:31:52;101049.25;;;6.93;78.63
77793;BME280;66983;51.438;5.438;2023-04-25T01:34:18;101048.41;;;6.91;78.14
77793;BME280;66983;51.438;5.438;2023-04-25T01:36:44;101047.59;;;6.87;78.20
77793;BME280;66983;51.438;5.438;2023-04-25T01:39:11;101054.63;;;6.88;78.46
77793;BME280;66983;51.438;5.438;2023-04-25T01:41:37;101052.84;;;6.89;78.93
77793;BME280;66983;51.438;5.438;2023-04-25T01:44:03;101047.59;;;6.87;79.08
77793;BME280;66983;51.438;5.438;2023-04-25T01:46:29;101054.63;;;6.88;78.55
77793;BME280;66983;51.438;5.438;2023-04-25T01:48:56;101051.25;;;6.80;78.58
77793;BME280;66983;51.438;5.438;2023-04-25T01:51:21;101057.41;;;6.82;78.83
77793;BME280;66983;51.438;5.438;2023-04-25T01:53:47;101051.28;;;6.78;78.55
77793;BME280;66983;51.438;5.438;2023-04-25T01:56:13;101064.56;;;6.77;79.05
77793;BME280;66983;51.438;5.438;2023-04-25T01:58:39;101058.38;;;6.76;78.88
77793;BME280;66983;51.438;5.438;2023-04-25T02:01:20;101062.81;;;6.76;78.09
77793;BME280;66983;51.438;5.438;2023-04-25T02:03:58;101064.53;;;6.78;78.32
77793;BME280;66983;51.438;5.438;2023-04-25T02:06:29;101065.44;;;6.77;78.91
77793;BME280;66983;51.438;5.438;2023-04-25T02:08:56;101066.31;;;6.78;79.51
77793;BME280;66983;51.438;5.438;2023-04-25T02:11:22;101067.19;;;6.78;79.63
77793;BME280;66983;51.438;5.438;2023-04-25T02:14:06;101067.19;;;6.78;79.46
77793;BME280;66983;51.438;5.438;2023-04-25T02:16:38;101073.31;;;6.80;79.42
77793;BME280;66983;51.438;5.438;2023-04-25T02:19:06;101071.53;;;6.82;79.26
77793;BME280;66983;51.438;5.438;2023-04-25T02:21:32;101065.28;;;6.85;79.32
77793;BME280;66983;51.438;5.438;2023-04-25T02:24:01;101065.31;;;6.84;78.62
77793;BME280;66983;51.438;5.438;2023-04-25T02:26:27;101075.91;;;6.84;79.97
77793;BME280;66983;51.438;5.438;2023-04-25T02:28:53;101074.13;;;6.84;78.95
77793;BME280;66983;51.438;5.438;2023-04-25T02:31:19;101075.91;;;6.84;79.32
77793;BME280;66983;51.438;5.438;2023-04-25T02:33:44;101075.91;;;6.84;79.45
77793;BME280;66983;51.438;5.438;2023-04-25T02:36:10;101071.56;;;6.79;79.47
77793;BME280;66983;51.438;5.438;2023-04-25T02:38:35;101073.34;;;6.79;79.32
77793;BME280;66983;51.438;5.438;2023-04-25T02:41:03;101079.47;;;6.82;79.26
77793;BME280;66983;51.438;5.438;2023-04-25T02:43:28;101078.59;;;6.82;79.57
77793;BME280;66983;51.438;5.438;2023-04-25T02:45:54;101083.94;;;6.79;78.78
77793;BME280;66983;51.438;5.438;2023-04-25T02:48:19;101081.31;;;6.77;79.64
77793;BME280;66983;51.438;5.438;2023-04-25T02:50:45;101083.16;;;6.75;79.08
77793;BME280;66983;51.438;5.438;2023-04-25T02:53:11;101085.84;;;6.74;79.39
77793;BME280;66983;51.438;5.438;2023-04-25T02:55:43;101087.69;;;6.69;79.31
77793;BME280;66983;51.438;5.438;2023-04-25T02:58:09;101078.03;;;6.66;79.13
77793;BME280;66983;51.438;5.438;2023-04-25T03:00:43;101078.13;;;6.62;79.88
77793;BME280;66983;51.438;5.438;2023-04-25T03:03:10;101071.97;;;6.60;79.65
77793;BME280;66983;51.438;5.438;2023-04-25T03:05:36;101068.41;;;6.62;79.40
77793;BME280;66983;51.438;5.438;2023-04-25T03:08:02;101077.22;;;6.63;79.86
77793;BME280;66983;51.438;5.438;2023-04-25T03:10:28;101076.38;;;6.61;79.71
77793;BME280;66983;51.438;5.438;2023-04-25T03:12:57;101080.81;;;6.59;79.74
77793;BME280;66983;51.438;5.438;2023-04-25T03:15:22;101085.25;;;6.58;79.56
77793;BME280;66983;51.438;5.438;2023-04-25T03:17:48;101086.06;;;6.62;80.29
77793;BME280;66983;51.438;5.438;2023-04-25T03:20:13;101077.22;;;6.63;79.23
77793;BME280;66983;51.438;5.438;2023-04-25T03:22:39;101077.31;;;6.57;79.07
77793;BME280;66983;51.438;5.438;2023-04-25T03:25:05;101083.38;;;6.63;79.80
77793;BME280;66983;51.438;5.438;2023-04-25T03:27:30;101093.09;;;6.63;78.84
77793;BME280;66983;51.438;5.438;2023-04-25T03:29:56;101095.81;;;6.60;79.99
77793;BME280;66983;51.438;5.438;2023-04-25T03:32:22;101084.31;;;6.61;79.70
77793;BME280;66983;51.438;5.438;2023-04-25T03:34:47;101095.78;;;6.61;80.58
77793;BME280;66983;51.438;5.438;2023-04-25T03:37:13;101090.53;;;6.58;79.28
77793;BME280;66983;51.438;5.438;2023-04-25T03:39:39;101088.75;;;6.59;79.48
77793;BME280;66983;51.438;5.438;2023-04-25T03:42:06;101090.56;;;6.57;79.58
77793;BME280;66983;51.438;5.438;2023-04-25T03:44:31;101101.13;;;6.58;79.57
77793;BME280;66983;51.438;5.438;2023-04-25T03:46:58;101096.72;;;6.59;79.45
77793;BME280;66983;51.438;5.438;2023-04-25T03:49:24;101097.59;;;6.59;80.16
77793;BME280;66983;51.438;5.438;2023-04-25T03:52:02;101095.81;;;6.60;79.16
77793;BME280;66983;51.438;5.438;2023-04-25T03:54:33;101087.84;;;6.61;79.27
77793;BME280;66983;51.438;5.438;2023-04-25T03:57:04;101085.22;;;6.60;79.82
77793;BME280;66983;51.438;5.438;2023-04-25T03:59:32;101099.31;;;6.62;79.63
77793;BME280;66983;51.438;5.438;2023-04-25T04:01:58;101101.03;;;6.63;79.31
77793;BME280;66983;51.438;5.438;2023-04-25T04:04:24;101099.28;;;6.63;79.56
77793;BME280;66983;51.438;5.438;2023-04-25T04:06:49;101105.41;;;6.65;79.01
77793;BME280;66983;51.438;5.438;2023-04-25T04:09:21;101112.50;;;6.63;79.80
77793;BME280;66983;51.438;5.438;2023-04-25T04:11:46;101110.75;;;6.64;79.58
77793;BME280;66983;51.438;5.438;2023-04-25T04:14:12;101115.13;;;6.65;79.26
77793;BME280;66983;51.438;5.438;2023-04-25T04:16:42;101107.22;;;6.63;79.55
77793;BME280;66983;51.438;5.438;2023-04-25T04:19:08;101116.91;;;6.64;79.35
77793;BME280;66983;51.438;5.438;2023-04-25T04:21:34;101110.75;;;6.64;79.82
77793;BME280;66983;51.438;5.438;2023-04-25T04:24:02;101111.66;;;6.63;80.33
77793;BME280;66983;51.438;5.438;2023-04-25T04:26:32;101113.38;;;6.65;79.51
77793;BME280;66983;51.438;5.438;2023-04-25T04:29:09;101120.38;;;6.68;80.13
77793;BME280;66983;51.438;5.438;2023-04-25T04:31:54;101113.41;;;6.62;79.42
77793;BME280;66983;51.438;5.438;2023-04-25T04:34:20;101123.97;;;6.64;79.71
77793;BME280;66983;51.438;5.438;2023-04-25T04:36:46;101126.63;;;6.64;79.33
77793;BME280;66983;51.438;5.438;2023-04-25T04:39:12;101124.81;;;6.67;79.72
77793;BME280;66983;51.438;5.438;2023-04-25T04:41:48;101131.81;;;6.70;79.70
77793;BME280;66983;51.438;5.438;2023-04-25T04:44:29;101139.75;;;6.71;79.83
77793;BME280;66983;51.438;5.438;2023-04-25T04:47:16;101130.03;;;6.72;79.42
77793;BME280;66983;51.438;5.438;2023-04-25T04:50:02;101128.28;;;6.71;78.86
77793;BME280;66983;51.438;5.438;2023-04-25T04:52:37;101127.34;;;6.73;79.09
77793;BME280;66983;51.438;5.438;2023-04-25T04:55:35;101129.97;;;6.75;79.79
77793;BME280;66983;51.438;5.438;2023-04-25T04:58:11;101140.50;;;6.76;78.98
77793;BME280;66983;51.438;5.438;2023-04-25T05:01:12;101145.88;;;6.75;78.61
77793;BME280;66983;51.438;5.438;2023-04-25T05:04:05;101152.81;;;6.79;78.72
77793;BME280;66983;51.438;5.438;2023-04-25T05:07:00;101161.63;;;6.81;77.67
77793;BME280;66983;51.438;5.438;2023-04-25T05:09:46;101168.78;;;6.76;78.31
77793;BME280;66983;51.438;5.438;2023-04-25T05:12:30;101165.22;;;6.77;78.93
77793;BME280;66983;51.438;5.438;2023-04-25T05:15:18;101169.59;;;6.79;78.22
77793;BME280;66983;51.438;5.438;2023-04-25T05:18:19;101172.22;;;6.81;78.16
77793;BME280;66983;51.438;5.438;2023-04-25T05:21:03;101176.59;;;6.82;78.44
77793;BME280;66983;51.438;5.438;2023-04-25T05:23:55;101180.06;;;6.87;77.89
77793;BME280;66983;51.438;5.438;2023-04-25T05:26:41;101187.03;;;6.93;78.97
77793;BME280;66983;51.438;5.438;2023-04-25T05:29:21;101185.19;;;6.96;77.96
77793;BME280;66983;51.438;5.438;2023-04-25T05:32:16;101175.50;;;6.95;78.17
77793;BME280;66983;51.438;5.438;2023-04-25T05:34:41;101179.06;;;6.94;77.27
77793;BME280;66983;51.438;5.438;2023-04-25T05:37:16;101178.13;;;6.97;77.71
77793;BME280;66983;51.438;5.438;2023-04-25T05:39:52;101180.69;;;7.01;77.89
77793;BME280;66983;51.438;5.438;2023-04-25T05:42:49;101185.91;;;7.04;77.61
77793;BME280;66983;51.438;5.438;2023-04-25T05:45:34;101188.41;;;7.12;77.79
77793;BME280;66983;51.438;5.438;2023-04-25T05:47:59;101194.47;;;7.19;77.14
77793;BME280;66983;51.438;5.438;2023-04-25T05:50:45;101192.69;;;7.19;76.69
77793;BME280;66983;51.438;5.438;2023-04-25T05:53:21;101204.09;;;7.24;76.75
77793;BME280;66983;51.438;5.438;2023-04-25T05:55:53;101208.47;;;7.27;77.09
77793;BME280;66983;51.438;5.438;2023-04-25T05:58:24;101213.69;;;7.30;76.62
77793;BME280;66983;51.438;5.438;2023-04-25T06:00:49;101207.44;;;7.32;77.05
77793;BME280;66983;51.438;5.438;2023-04-25T06:03:15;101213.56;;;7.36;77.32
77793;BME280;66983;51.438;5.438;2023-04-25T06:05:42;101216.19;;;7.37;76.72
77793;BME280;66983;51.438;5.438;2023-04-25T06:08:09;101222.31;;;7.41;76.36
77793;BME280;66983;51.438;5.438;2023-04-25T06:10:37;101221.41;;;7.42;76.62
77793;BME280;66983;51.438;5.438;2023-04-25T06:13:03;101226.75;;;7.40;75.94
77793;BME280;66983;51.438;5.438;2023-04-25T06:15:30;101232.00;;;7.43;75.70
77793;BME280;66983;51.438;5.438;2023-04-25T06:17:59;101228.34;;;7.49;76.06
77793;BME280;66983;51.438;5.438;2023-04-25T06:20:25;101236.16;;;7.55;75.73
77793;BME280;66983;51.438;5.438;2023-04-25T06:22:52;101223.75;;;7.57;76.28
77793;BME280;66983;51.438;5.438;2023-04-25T06:25:18;101235.13;;;7.62;75.90
77793;BME280;66983;51.438;5.438;2023-04-25T06:27:44;101230.69;;;7.64;75.77
77793;BME280;66983;51.438;5.438;2023-04-25T06:30:10;101229.84;;;7.62;75.68
77793;BME280;66983;51.438;5.438;2023-04-25T06:32:38;101235.03;;;7.68;75.94
77793;BME280;66983;51.438;5.438;2023-04-25T06:35:04;101237.72;;;7.65;74.08
77793;BME280;66983;51.438;5.438;2023-04-25T06:37:32;101247.63;;;7.56;73.22
77793;BME280;66983;51.438;5.438;2023-04-25T06:39:58;101240.59;;;7.55;72.98
77793;BME280;66983;51.438;5.438;2023-04-25T06:42:23;101246.69;;;7.60;72.62
77793;BME280;66983;51.438;5.438;2023-04-25T06:44:55;101245.66;;;7.67;74.23
77793;BME280;66983;51.438;5.438;2023-04-25T06:47:21;101249.78;;;7.80;72.63
77793;BME280;66983;51.438;5.438;2023-04-25T06:49:47;101261.91;;;7.93;72.29
77793;BME280;66983;51.438;5.438;2023-04-25T06:52:13;101253.81;;;7.99;69.76
77793;BME280;66983;51.438;5.438;2023-04-25T06:54:39;101264.50;;;7.96;68.18
77793;BME280;66983;51.438;5.438;2023-04-25T06:57:34;101253.91;;;7.95;67.30
77793;BME280;66983;51.438;5.438;2023-04-25T07:00:14;101253.78;;;8.01;67.28
77793;BME280;66983;51.438;5.438;2023-04-25T07:02:40;101259.78;;;8.09;66.13
77793;BME280;66983;51.438;5.438;2023-04-25T07:05:07;101267.63;;;8.15;66.32
77793;BME280;66983;51.438;5.438;2023-04-25T07:07:34;101260.53;;;8.15;66.00
77793;BME280;66983;51.438;5.438;2023-04-25T07:09:59;101276.38;;;8.20;64.94
77793;BME280;66983;51.438;5.438;2023-04-25T07:12:25;101275.59;;;8.15;63.07
77793;BME280;66983;51.438;5.438;2023-04-25T07:14:51;101267.22;;;8.33;65.18
77793;BME280;66983;51.438;5.438;2023-04-25T07:17:16;101272.19;;;8.48;63.43
77793;BME280;66983;51.438;5.438;2023-04-25T07:19:42;101271.38;;;8.46;61.47
77793;BME280;66983;51.438;5.438;2023-04-25T07:22:08;101269.44;;;8.53;61.77
77793;BME280;66983;51.438;5.438;2023-04-25T07:24:37;101281.66;;;8.60;62.45
77793;BME280;66983;51.438;5.438;2023-04-25T07:27:06;101283.16;;;8.72;61.47
77793;BME280;66983;51.438;5.438;2023-04-25T07:29:42;101284.81;;;8.76;62.53
77793;BME280;66983;51.438;5.438;2023-04-25T07:32:07;101281.25;;;8.77;60.88
77793;BME280;66983;51.438;5.438;2023-04-25T07:34:33;101285.41;;;8.87;59.28
77793;BME280;66983;51.438;5.438;2023-04-25T07:37:02;101280.03;;;8.90;59.38
77793;BME280;66983;51.438;5.438;2023-04-25T07:39:35;101293.25;;;8.93;58.69
77793;BME280;66983;51.438;5.438;2023-04-25T07:42:03;101294.06;;;8.97;60.46
77793;BME280;66983;51.438;5.438;2023-04-25T07:44:29;101295.53;;;9.08;59.06
77793;BME280;66983;51.438;5.438;2023-04-25T07:46:56;101295.44;;;9.11;57.84
77793;BME280;66983;51.438;5.438;2023-04-25T07:49:21;101300.69;;;9.14;59.65
77793;BME280;66983;51.438;5.438;2023-04-25T07:51:48;101294.28;;;9.22;59.42
77793;BME280;66983;51.438;5.438;2023-04-25T07:54:16;101301.22;;;9.29;60.82
77793;BME280;66983;51.438;5.438;2023-04-25T07:56:47;101308.28;;;9.30;59.91
77793;BME280;66983;51.438;5.438;2023-04-25T07:59:12;101306.84;;;9.16;59.67
77793;BME280;66983;51.438;5.438;2023-04-25T08:01:40;101314.88;;;9.13;57.55
77793;BME280;66983;51.438;5.438;2023-04-25T08:04:06;101322.25;;;9.04;58.76
77793;BME280;66983;51.438;5.438;2023-04-25T08:06:46;101318.63;;;9.06;58.64
77793;BME280;66983;51.438;5.438;2023-04-25T08:09:16;101325.03;;;8.98;58.59
77793;BME280;66983;51.438;5.438;2023-04-25T08:11:42;101328.56;;;8.98;59.62
77793;BME280;66983;51.438;5.438;2023-04-25T08:14:11;101333.25;;;8.87;59.13
77793;BME280;66983;51.438;5.438;2023-04-25T08:16:39;101336.97;;;8.81;58.44
77793;BME280;66983;51.438;5.438;2023-04-25T08:19:05;101329.91;;;8.80;58.55
77793;BME280;66983;51.438;5.438;2023-04-25T08:21:31;101343.16;;;8.82;59.83
77793;BME280;66983;51.438;5.438;2023-04-25T08:23:59;101347.59;;;8.81;60.64
77793;BME280;66983;51.438;5.438;2023-04-25T08:26:29;101345.94;;;8.76;59.27
77793;BME280;66983;51.438;5.438;2023-04-25T08:28:54;101358.34;;;8.77;59.51
77793;BME280;66983;51.438;5.438;2023-04-25T08:31:21;101354.06;;;8.70;58.57
77793;BME280;66983;51.438;5.438;2023-04-25T08:33:58;101348.81;;;8.67;60.61
77793;BME280;66983;51.438;5.438;2023-04-25T08:36:53;101364.69;;;8.70;59.89
77793;BME280;66983;51.438;5.438;2023-04-25T08:39:27;101362.81;;;8.75;61.12
77793;BME280;66983;51.438;5.438;2023-04-25T08:42:15;101372.50;;;8.77;59.57
77793;BME280;66983;51.438;5.438;2023-04-25T08:44:41;101374.16;;;8.83;61.20
77793;BME280;66983;51.438;5.438;2023-04-25T08:47:06;101376.69;;;8.86;59.76
77793;BME280;66983;51.438;5.438;2023-04-25T08:49:39;101385.50;;;8.88;59.96
77793;BME280;66983;51.438;5.438;2023-04-25T08:52:12;101382.44;;;9.06;60.56
77793;BME280;66983;51.438;5.438;2023-04-25T08:54:42;101388.28;;;9.21;60.82
77793;BME280;66983;51.438;5.438;2023-04-25T08:57:10;101387.31;;;9.25;59.46
77793;BME280;66983;51.438;5.438;2023-04-25T08:59:37;101388.88;;;9.33;59.02
77793;BME280;66983;51.438;5.438;2023-04-25T09:02:05;101394.94;;;9.38;59.12
77793;BME280;66983;51.438;5.438;2023-04-25T09:04:31;101410.72;;;9.46;57.93
77793;BME280;66983;51.438;5.438;2023-04-25T09:06:57;101400.09;;;9.44;56.88
77793;BME280;66983;51.438;5.438;2023-04-25T09:09:24;101410.53;;;9.53;58.87
77793;BME280;66983;51.438;5.438;2023-04-25T09:11:49;101404.13;;;9.61;56.16
77793;BME280;66983;51.438;5.438;2023-04-25T09:14:18;101424.22;;;9.72;56.19
77793;BME280;66983;51.438;5.438;2023-04-25T09:17:06;101424.19;;;9.74;53.62
77793;BME280;66983;51.438;5.438;2023-04-25T09:19:45;101430.41;;;9.73;54.40
77793;BME280;66983;51.438;5.438;2023-04-25T09:22:30;101435.75;;;9.73;53.94
77793;BME280;66983;51.438;5.438;2023-04-25T09:24:57;101438.22;;;9.80;55.09
77793;BME280;66983;51.438;5.438;2023-04-25T09:27:26;101424.09;;;9.77;53.64
77793;BME280;66983;51.438;5.438;2023-04-25T09:30:08;101436.31;;;9.85;52.76
77793;BME280;66983;51.438;5.438;2023-04-25T09:32:49;101438.94;;;9.87;52.93
77793;BME280;66983;51.438;5.438;2023-04-25T09:35:25;101436.84;;;9.98;52.97
77793;BME280;66983;51.438;5.438;2023-04-25T09:37:56;101438.94;;;10.18;55.08
77793;BME280;66983;51.438;5.438;2023-04-25T09:40:46;101430.66;;;10.30;51.86
77793;BME280;66983;51.438;5.438;2023-04-25T09:43:23;101444.97;;;10.57;52.83
77793;BME280;66983;51.438;5.438;2023-04-25T09:45:54;101447.13;;;10.44;48.66
77793;BME280;66983;51.438;5.438;2023-04-25T09:48:27;101449.00;;;10.41;50.44
77793;BME280;66983;51.438;5.438;2023-04-25T09:51:07;101442.09;;;10.34;51.40
77793;BME280;66983;51.438;5.438;2023-04-25T09:53:36;101448.34;;;10.33;51.80
77793;BME280;66983;51.438;5.438;2023-04-25T09:56:13;101446.59;;;10.32;52.97
77793;BME280;66983;51.438;5.438;2023-04-25T09:58:40;101449.06;;;10.39;52.50
77793;BME280;66983;51.438;5.438;2023-04-25T10:01:08;101450.63;;;10.46;52.39
77793;BME280;66983;51.438;5.438;2023-04-25T10:03:47;101455.53;;;10.62;52.21
77793;BME280;66983;51.438;5.438;2023-04-25T10:06:42;101450.28;;;10.59;52.15
77793;BME280;66983;51.438;5.438;2023-04-25T10:09:09;101455.31;;;10.68;51.27
77793;BME280;66983;51.438;5.438;2023-04-25T10:11:36;101455.22;;;10.71;51.30
77793;BME280;66983;51.438;5.438;2023-04-25T10:14:02;101452.75;;;10.65;51.90
77793;BME280;66983;51.438;5.438;2023-04-25T10:16:28;101446.69;;;10.60;52.09
77793;BME280;66983;51.438;5.438;2023-04-25T10:18:54;101443.03;;;10.64;52.92
77793;BME280;66983;51.438;5.438;2023-04-25T10:21:21;101447.34;;;10.66;53.89
77793;BME280;66983;51.438;5.438;2023-04-25T10:23:48;101450.75;;;10.71;53.60
77793;BME280;66983;51.438;5.438;2023-04-25T10:26:14;101443.47;;;10.78;52.43
77793;BME280;66983;51.438;5.438;2023-04-25T10:29:02;101455.31;;;10.68;48.14
77793;BME280;66983;51.438;5.438;2023-04-25T10:31:30;101455.44;;;10.65;50.12
77793;BME280;66983;51.438;5.438;2023-04-25T10:33:56;101449.91;;;10.71;47.52
77793;BME280;66983;51.438;5.438;2023-04-25T10:36:23;101449.72;;;10.77;49.37
77793;BME280;66983;51.438;5.438;2023-04-25T10:38:51;101453.38;;;10.73;49.32
77793;BME280;66983;51.438;5.438;2023-04-25T10:41:21;101458.63;;;10.76;49.99
77793;BME280;66983;51.438;5.438;2023-04-25T10:43:49;101463.00;;;10.78;49.26
77793;BME280;66983;51.438;5.438;2023-04-25T10:46:28;101460.22;;;10.83;48.07
77793;BME280;66983;51.438;5.438;2023-04-25T10:49:00;101456.22;;;10.96;47.53
77793;BME280;66983;51.438;5.438;2023-04-25T10:51:30;101452.56;;;11.00;49.46
77793;BME280;66983;51.438;5.438;2023-04-25T10:54:05;101443.84;;;10.94;48.02
77793;BME280;66983;51.438;5.438;2023-04-25T10:56:32;101449.38;;;10.89;48.39
77793;BME280;66983;51.438;5.438;2023-04-25T10:59:13;101458.28;;;10.88;49.77
77793;BME280;66983;51.438;5.438;2023-04-25T11:01:41;101449.44;;;10.86;49.67
77793;BME280;66983;51.438;5.438;2023-04-25T11:04:46;101456.50;;;10.88;50.18
77793;BME280;66983;51.438;5.438;2023-04-25T11:07:26;101451.19;;;10.87;48.84
77793;BME280;66983;51.438;5.438;2023-04-25T11:09:54;101456.53;;;10.87;49.27
77793;BME280;66983;51.438;5.438;2023-04-25T11:12:19;101458.94;;;10.95;49.88
77793;BME280;66983;51.438;5.438;2023-04-25T11:14:45;101463.03;;;11.06;50.40
77793;BME280;66983;51.438;5.438;2023-04-25T11:17:11;101460.22;;;11.11;50.16
77793;BME280;66983;51.438;5.438;2023-04-25T11:19:36;101455.88;;;11.08;50.66
77793;BME280;66983;51.438;5.438;2023-04-25T11:22:03;101466.91;;;10.96;50.83
77793;BME280;66983;51.438;5.438;2023-04-25T11:24:30;101463.53;;;10.91;51.40
77793;BME280;66983;51.438;5.438;2023-04-25T11:26:57;101468.91;;;10.90;51.58
77793;BME280;66983;51.438;5.438;2023-04-25T11:29:26;101474.28;;;10.88;51.71
77793;BME280;66983;51.438;5.438;2023-04-25T11:31:52;101470.09;;;10.79;51.50
77793;BME280;66983;51.438;5.438;2023-04-25T11:34:18;101474.22;;;10.60;51.62
77793;BME280;66983;51.438;5.438;2023-04-25T11:36:45;101484.44;;;10.44;53.70
77793;BME280;66983;51.438;5.438;2023-04-25T11:39:11;101495.19;;;10.40;54.45
77793;BME280;66983;51.438;5.438;2023-04-25T11:41:38;101507.28;;;10.20;56.10
77793;BME280;66983;51.438;5.438;2023-04-25T11:44:04;101506.19;;;9.94;56.46
77793;BME280;66983;51.438;5.438;2023-04-25T11:46:30;101514.56;;;9.78;59.06
77793;BME280;66983;51.438;5.438;2023-04-25T11:48:57;101524.34;;;9.78;59.06
77793;BME280;66983;51.438;5.438;2023-04-25T11:51:22;101514.66;;;9.75;57.17
77793;BME280;66983;51.438;5.438;2023-04-25T11:53:48;101506.41;;;9.86;56.64
77793;BME280;66983;51.438;5.438;2023-04-25T11:56:13;101509.69;;;9.96;53.58
77793;BME280;66983;51.438;5.438;2023-04-25T12:03:54;101515.16;;;10.25;54.24
77793;BME280;66983;51.438;5.438;2023-04-25T12:06:19;101501.47;;;10.39;52.12
77793;BME280;66983;51.438;5.438;2023-04-25T12:11:26;101518.06;;;10.48;52.64
77793;BME280;66983;51.438;5.438;2023-04-25T12:13:52;101517.31;;;10.43;51.34
77793;BME280;66983;51.438;5.438;2023-04-25T12:16:19;101515.81;;;10.35;51.35
77793;BME280;66983;51.438;5.438;2023-04-25T12:18:44;101523.03;;;10.30;50.72
77793;BME280;66983;51.438;5.438;2023-04-25T12:21:10;101518.75;;;10.24;50.57
77793;BME280;66983;51.438;5.438;2023-04-25T12:23:38;101524.09;;;10.23;50.93
77793;BME280;66983;51.438;5.438;2023-04-25T12:26:04;101522.16;;;10.29;51.70
77793;BME280;66983;51.438;5.438;2023-04-25T12:28:32;101510.28;;;10.41;52.97
77793;BME280;66983;51.438;5.438;2023-04-25T12:33:34;101514.97;;;10.65;51.92
77793;BME280;66983;51.438;5.438;2023-04-25T12:36:02;101517.13;;;10.82;49.85
77793;BME280;66983;51.438;5.438;2023-04-25T12:38:37;101516.25;;;10.81;47.41
77793;BME280;66983;51.438;5.438;2023-04-25T12:41:02;101517.63;;;10.95;46.67
77793;BME280;66983;51.438;5.438;2023-04-25T12:43:28;101510.19;;;11.06;46.11
77793;BME280;66983;51.438;5.438;2023-04-25T12:45:55;101509.50;;;10.99;46.12
77793;BME280;66983;51.438;5.438;2023-04-25T12:48:21;101519.31;;;10.97;45.53
77793;BME280;66983;51.438;5.438;2023-04-25T12:50:48;101519.66;;;10.86;45.18
77793;BME280;66983;51.438;5.438;2023-04-25T12:53:15;101523.19;;;10.87;46.69
77793;BME280;66983;51.438;5.438;2023-04-25T12:55:41;101523.19;;;10.87;46.95
77793;BME280;66983;51.438;5.438;2023-04-25T12:58:06;101522.41;;;10.83;47.83
77793;BME280;66983;51.438;5.438;2023-04-25T13:00:33;101526.88;;;10.83;47.32
77793;BME280;66983;51.438;5.438;2023-04-25T13:02:58;101530.53;;;10.79;46.02
77793;BME280;66983;51.438;5.438;2023-04-25T13:05:24;101522.66;;;10.74;47.03
77793;BME280;66983;51.438;5.438;2023-04-25T13:07:50;101528.03;;;10.73;47.81
77793;BME280;66983;51.438;5.438;2023-04-25T13:10:17;101529.03;;;10.69;46.24
77793;BME280;66983;51.438;5.438;2023-04-25T13:12:43;101534.25;;;10.73;47.53
77793;BME280;66983;51.438;5.438;2023-04-25T13:15:09;101537.59;;;10.81;46.20
77793;BME280;66983;51.438;5.438;2023-04-25T13:17:37;101540.13;;;10.86;46.14
77793;BME280;66983;51.438;5.438;2023-04-25T13:20:04;101534.97;;;10.80;46.09
77793;BME280;66983;51.438;5.438;2023-04-25T13:22:34;101546.28;;;10.88;47.66